createdAt,value
2022-09-21T00:00:41.739Z,6.40
2022-09-21T00:04:37.397Z,3.90
2022-09-21T00:08:01.061Z,4.80
2022-09-21T00:11:36.801Z,4.10
2022-09-21T00:15:11.326Z,3.80
2022-09-21T00:19:06.794Z,5.20
2022-09-21T00:22:27.176Z,3.80
2022-09-21T00:26:12.860Z,4.20
2022-09-21T00:29:40.645Z,2.70
2022-09-21T00:33:17.503Z,8.70
2022-09-21T00:36:54.131Z,5.00
2022-09-21T00:40:32.192Z,4.80
2022-09-21T00:44:21.338Z,6.40
2022-09-21T00:48:03.911Z,7.90
2022-09-21T00:51:44.545Z,3.80
2022-09-21T00:55:12.222Z,4.70
2022-09-21T00:58:47.667Z,5.30
2022-09-21T01:02:38.410Z,6.40
2022-09-21T01:05:58.702Z,4.60
2022-09-21T01:09:36.057Z,6.70
2022-09-21T01:13:22.223Z,6.40
2022-09-21T01:17:27.229Z,6.30
2022-09-21T01:21:14.009Z,7.30
2022-09-21T01:24:48.438Z,7.10
2022-09-21T01:28:37.201Z,8.00
2022-09-21T01:32:20.851Z,9.40
2022-09-21T01:36:05.715Z,9.70
2022-09-21T01:39:51.289Z,8.70
2022-09-21T01:43:18.237Z,8.70
2022-09-21T01:46:49.033Z,10.40
2022-09-21T01:50:29.136Z,6.10
2022-09-21T01:54:11.678Z,7.10
2022-09-21T01:58:03.424Z,7.20
2022-09-21T02:01:48.768Z,7.40
2022-09-21T02:05:11.194Z,6.90
2022-09-21T02:08:51.087Z,7.90
2022-09-21T02:12:23.358Z,8.80
2022-09-21T02:16:17.035Z,5.30
2022-09-21T02:20:20.462Z,6.60
2022-09-21T02:23:49.551Z,6.20
2022-09-21T02:27:57.570Z,6.50
2022-09-21T02:32:05.648Z,7.20
2022-09-21T02:35:50.565Z,10.90
2022-09-21T02:39:17.908Z,8.80
2022-09-21T02:43:20.514Z,7.40
2022-09-21T02:46:53.674Z,7.30
2022-09-21T02:50:24.989Z,6.80
2022-09-21T02:53:55.931Z,6.70
2022-09-21T02:57:31.411Z,10.20
2022-09-21T03:01:11.103Z,7.90
2022-09-21T03:05:04.462Z,7.30
2022-09-21T03:08:24.898Z,7.90
2022-09-21T03:12:02.142Z,6.50
2022-09-21T03:15:40.272Z,7.20
2022-09-21T03:19:34.237Z,8.60
2022-09-21T03:22:54.716Z,13.40
2022-09-21T03:26:31.545Z,11.50
2022-09-21T03:30:08.787Z,12.40
2022-09-21T03:33:46.198Z,12.00
2022-09-21T03:37:22.015Z,16.50
2022-09-21T03:41:18.232Z,10.60
2022-09-21T03:44:39.356Z,13.20
2022-09-21T03:48:16.735Z,13.30
2022-09-21T03:52:11.916Z,14.30
2022-09-21T03:55:33.301Z,12.20
2022-09-21T03:59:13.779Z,11.90
2022-09-21T04:03:05.481Z,13.10
2022-09-21T04:06:26.579Z,15.60
2022-09-21T04:10:26.519Z,19.90
2022-09-21T04:13:52.387Z,12.00
2022-09-21T04:17:23.892Z,15.70
2022-09-21T04:21:00.704Z,16.50
2022-09-21T04:24:39.586Z,11.70
2022-09-21T04:28:33.519Z,13.00
2022-09-21T04:31:53.807Z,12.90
2022-09-21T04:35:56.166Z,18.60
2022-09-21T04:39:16.595Z,12.90
2022-09-21T04:42:55.121Z,12.60
2022-09-21T04:46:30.595Z,13.70
2022-09-21T04:50:07.632Z,12.40
2022-09-21T04:53:44.795Z,15.80
2022-09-21T04:57:21.011Z,13.50
2022-09-21T05:00:57.672Z,14.00
2022-09-21T05:04:34.077Z,11.50
2022-09-21T05:08:10.819Z,23.70
2022-09-21T05:12:06.709Z,13.30
2022-09-21T05:15:27.441Z,16.10
2022-09-21T05:19:05.007Z,17.30
2022-09-21T05:23:03.775Z,15.70
2022-09-21T05:26:43.376Z,15.20
2022-09-21T05:30:23.036Z,18.20
2022-09-21T05:33:58.627Z,16.70
2022-09-21T05:37:40.865Z,16.50
2022-09-21T05:41:02.252Z,16.40
2022-09-21T05:44:39.008Z,16.00
2022-09-21T05:48:27.125Z,13.40
2022-09-21T05:52:25.655Z,12.40
2022-09-21T05:56:23.235Z,15.50
2022-09-21T06:00:12.549Z,14.60
2022-09-21T06:03:53.074Z,13.70
2022-09-21T06:07:32.577Z,19.40
2022-09-21T06:11:13.255Z,17.40
2022-09-21T06:14:33.843Z,13.90
2022-09-21T06:18:15.480Z,18.50
2022-09-21T06:21:47.397Z,14.20
2022-09-21T06:25:44.279Z,11.00
2022-09-21T06:29:04.916Z,12.90
2022-09-21T06:32:41.690Z,15.80
2022-09-21T06:36:18.483Z,11.60
2022-09-21T06:40:14.128Z,14.50
2022-09-21T06:43:34.816Z,10.90
2022-09-21T06:47:11.588Z,9.30
2022-09-21T06:51:07.086Z,7.80
2022-09-21T06:54:28.218Z,8.50
2022-09-21T06:58:05.395Z,9.70
2022-09-21T07:02:00.129Z,5.00
2022-09-21T07:05:39.574Z,8.70
2022-09-21T07:12:42.750Z,4.70
2022-09-21T07:16:38.499Z,8.80
2022-09-21T07:19:58.620Z,3.90
2022-09-21T07:23:35.767Z,10.70
2022-09-21T07:27:32.529Z,5.20
2022-09-21T07:30:53.026Z,5.20
2022-09-21T07:34:29.625Z,6.10
2022-09-21T07:38:08.565Z,3.50
2022-09-21T07:41:43.095Z,4.30
2022-09-21T07:45:20.062Z,4.70
2022-09-21T07:48:57.484Z,4.00
2022-09-21T07:52:33.588Z,3.70
2022-09-21T07:56:29.226Z,3.90
2022-09-21T07:59:49.613Z,6.80
2022-09-21T08:03:48.650Z,6.10
2022-09-21T08:07:09.080Z,5.10
2022-09-21T08:10:45.723Z,6.90
2022-09-21T08:14:26.272Z,8.00
2022-09-21T08:18:18.153Z,6.20
2022-09-21T08:21:38.623Z,6.30
2022-09-21T08:25:15.759Z,7.80
2022-09-21T08:29:13.745Z,10.00
2022-09-21T08:32:50.571Z,8.40
2022-09-21T08:36:12.921Z,11.70
2022-09-21T08:39:49.623Z,11.80
2022-09-21T08:43:40.386Z,8.70
2022-09-21T08:47:10.430Z,11.20
2022-09-21T08:50:42.549Z,11.50
2022-09-21T08:54:26.894Z,8.70
2022-09-21T08:57:54.573Z,8.20
2022-09-21T09:01:53.128Z,14.10
2022-09-21T09:05:48.122Z,13.00
2022-09-21T09:09:19.867Z,12.40
2022-09-21T09:13:26.178Z,10.10
2022-09-21T09:17:19.156Z,14.00
2022-09-21T09:20:46.860Z,8.40
2022-09-21T09:24:29.402Z,10.50
2022-09-21T09:27:58.890Z,11.10
2022-09-21T09:31:54.055Z,13.20
2022-09-21T09:35:17.677Z,8.70
2022-09-21T09:38:58.723Z,8.20
2022-09-21T09:43:05.432Z,14.20
2022-09-21T09:46:47.497Z,9.70
2022-09-21T09:50:21.807Z,12.10
2022-09-21T09:53:44.962Z,13.80
2022-09-21T09:57:32.172Z,11.90
2022-09-21T10:01:43.583Z,10.50
2022-09-21T10:05:06.569Z,9.90
2022-09-21T10:08:48.660Z,9.90
2022-09-21T10:12:25.245Z,10.20
2022-09-21T10:16:22.096Z,11.30
2022-09-21T10:20:07.717Z,8.70
2022-09-21T10:23:58.729Z,11.70
2022-09-21T10:27:43.443Z,12.40
2022-09-21T10:31:16.674Z,8.20
2022-09-21T10:34:59.713Z,9.00
2022-09-21T10:38:29.187Z,10.80
2022-09-21T10:42:14.076Z,11.40
2022-09-21T10:45:56.824Z,9.10
2022-09-21T10:49:25.044Z,6.50
2022-09-21T10:53:24.756Z,10.00
2022-09-21T10:57:09.923Z,9.50
2022-09-21T11:00:37.165Z,10.90
2022-09-21T11:04:14.316Z,9.60
2022-09-21T11:08:11.595Z,7.70
2022-09-21T11:11:53.404Z,7.10
2022-09-21T11:15:26.430Z,6.20
2022-09-21T11:18:57.911Z,4.90
2022-09-21T11:22:45.727Z,6.70
2022-09-21T11:26:33.038Z,5.30
2022-09-21T11:30:03.416Z,5.00
2022-09-21T11:34:13.432Z,5.70
2022-09-21T11:38:12.412Z,3.70
2022-09-21T11:41:59.105Z,3.00
2022-09-21T11:45:30.089Z,3.40
2022-09-21T11:49:58.967Z,2.50
2022-09-21T11:54:25.405Z,5.50
2022-09-21T11:58:36.738Z,2.40
2022-09-21T12:02:14.424Z,3.40
2022-09-21T12:06:07.075Z,3.80
2022-09-21T12:10:00.426Z,2.30
2022-09-21T12:13:33.066Z,3.80
2022-09-21T12:17:14.163Z,2.50
2022-09-21T12:21:22.416Z,2.90
2022-09-21T12:25:12.020Z,4.70
2022-09-21T12:29:00.693Z,4.40
2022-09-21T12:32:50.419Z,3.20
2022-09-21T12:36:24.819Z,4.50
2022-09-21T12:40:27.111Z,3.50
2022-09-21T12:43:55.327Z,1.50
2022-09-21T12:47:45.295Z,4.20
2022-09-21T12:51:32.783Z,2.70
2022-09-21T12:55:12.276Z,4.50
2022-09-21T12:59:22.712Z,2.00
2022-09-21T13:03:13.862Z,2.10
2022-09-21T13:06:44.254Z,2.10
2022-09-21T13:10:42.292Z,5.40
2022-09-21T13:14:25.924Z,4.10
2022-09-21T13:17:46.274Z,3.30
2022-09-21T13:21:31.516Z,3.20
2022-09-21T13:25:05.884Z,2.80
2022-09-21T13:29:03.433Z,3.70
2022-09-21T13:32:24.768Z,3.80
2022-09-21T13:36:35.523Z,3.10
2022-09-21T13:40:03.005Z,3.20
2022-09-21T13:43:54.125Z,4.20
2022-09-21T13:47:26.352Z,3.50
2022-09-21T13:50:55.899Z,2.90
2022-09-21T13:54:36.279Z,2.40
2022-09-21T13:58:17.534Z,4.90
2022-09-21T14:01:47.174Z,3.80
2022-09-21T14:05:44.949Z,2.20
2022-09-21T14:09:09.160Z,3.20
2022-09-21T14:12:44.677Z,2.40
2022-09-21T14:16:29.148Z,1.70
2022-09-21T14:19:56.350Z,1.80
2022-09-21T14:24:06.907Z,1.20
2022-09-21T14:27:36.484Z,1.90
2022-09-21T14:31:32.465Z,1.20
2022-09-21T14:35:01.471Z,2.10
2022-09-21T14:38:59.789Z,1.30
2022-09-21T14:42:27.486Z,1.20
2022-09-21T14:46:12.010Z,3.60
2022-09-21T14:49:49.607Z,1.30
2022-09-21T14:53:29.150Z,3.10
2022-09-21T14:57:13.302Z,3.90
2022-09-21T15:00:45.465Z,6.40
2022-09-21T15:04:29.103Z,5.10
2022-09-21T15:08:53.447Z,6.70
2022-09-21T15:12:19.583Z,6.70
2022-09-21T15:15:59.813Z,8.60
2022-09-21T15:19:35.182Z,10.90
2022-09-21T15:23:25.698Z,7.40
2022-09-21T15:27:14.288Z,7.60
2022-09-21T15:30:45.885Z,5.00
2022-09-21T15:34:15.230Z,2.80
2022-09-21T15:37:50.936Z,1.10
2022-09-21T15:41:46.943Z,1.40
2022-09-21T15:45:29.237Z,0.70
2022-09-21T15:48:52.322Z,1.20
2022-09-21T15:52:36.273Z,2.10
2022-09-21T15:56:25.720Z,1.30
2022-09-21T16:00:29.566Z,1.80
2022-09-21T16:04:18.498Z,3.40
2022-09-21T16:07:39.227Z,3.50
2022-09-21T16:11:37.791Z,5.10
2022-09-21T16:15:08.057Z,7.70
2022-09-21T16:18:56.470Z,5.40
2022-09-21T16:22:39.268Z,8.50
2022-09-21T16:26:02.254Z,7.10
2022-09-21T16:29:42.395Z,7.60
2022-09-21T16:33:41.276Z,10.30
2022-09-21T16:37:20.447Z,8.20
2022-09-21T16:41:02.103Z,10.70
2022-09-21T16:44:44.981Z,8.00
2022-09-21T16:48:08.048Z,5.40
2022-09-21T16:51:42.438Z,10.10
2022-09-21T16:55:38.128Z,9.50
2022-09-21T16:59:00.505Z,9.50
2022-09-21T17:02:35.894Z,10.30
2022-09-21T17:06:21.851Z,11.40
2022-09-21T17:10:12.479Z,13.20
2022-09-21T17:13:33.650Z,7.90
2022-09-21T17:17:32.548Z,8.90
2022-09-21T17:20:52.942Z,10.50
2022-09-21T17:24:49.150Z,12.20
2022-09-21T17:28:21.005Z,17.30
2022-09-21T17:31:53.892Z,13.90
2022-09-21T17:35:39.311Z,13.80
2022-09-21T17:39:02.304Z,14.00
2022-09-21T17:43:13.157Z,20.20
2022-09-21T17:47:02.721Z,14.80
2022-09-21T17:50:27.144Z,16.20
2022-09-21T17:54:00.978Z,17.10
2022-09-21T17:57:41.135Z,15.20
2022-09-21T18:01:38.126Z,21.50
2022-09-21T18:05:04.729Z,19.90
2022-09-21T18:08:37.014Z,22.00
2022-09-21T18:12:58.878Z,19.30
2022-09-21T18:16:27.290Z,23.50
2022-09-21T18:20:01.949Z,17.10
2022-09-21T18:23:51.347Z,21.00
2022-09-21T18:27:13.949Z,23.30
2022-09-21T18:31:22.069Z,26.70
2022-09-21T18:34:55.188Z,14.20
2022-09-21T18:38:45.755Z,15.20
2022-09-21T18:42:41.778Z,28.40
2022-09-21T18:46:48.929Z,34.60
2022-09-21T18:50:30.026Z,28.60
2022-09-21T18:54:21.968Z,27.50
2022-09-21T18:58:01.955Z,19.20
2022-09-21T19:01:42.854Z,15.30
2022-09-21T19:05:05.332Z,14.70
2022-09-21T19:09:18.198Z,15.10
2022-09-21T19:13:06.900Z,11.00
2022-09-21T19:16:45.985Z,14.60
2022-09-21T19:20:52.218Z,10.20
2022-09-21T19:24:53.990Z,14.20
2022-09-21T19:29:05.022Z,10.70
2022-09-21T19:32:56.722Z,15.00
2022-09-21T19:36:18.481Z,15.00
2022-09-21T19:40:16.438Z,21.90
2022-09-21T19:44:01.432Z,18.50
2022-09-21T19:47:35.328Z,22.20
2022-09-21T19:50:59.061Z,17.90
2022-09-21T19:54:54.225Z,23.80
2022-09-21T19:58:34.003Z,21.80
2022-09-21T20:02:31.938Z,31.70
2022-09-21T20:06:08.057Z,24.10
2022-09-21T20:09:37.266Z,24.90
2022-09-21T20:13:25.610Z,26.60
2022-09-21T20:17:12.249Z,27.90
2022-09-21T20:20:32.637Z,32.50
2022-09-21T20:24:19.308Z,24.30
2022-09-21T20:27:50.921Z,29.10
2022-09-21T20:31:42.108Z,31.30
2022-09-21T20:35:24.341Z,30.10
2022-09-21T20:38:44.911Z,28.00
2022-09-21T20:42:41.389Z,25.40
2022-09-21T20:46:03.833Z,24.80
2022-09-21T20:49:39.852Z,30.00
2022-09-21T20:53:16.925Z,27.50
2022-09-21T20:56:52.695Z,22.20
2022-09-21T21:00:29.463Z,24.70
2022-09-21T21:04:25.040Z,24.60
2022-09-21T21:08:05.228Z,27.20
2022-09-21T21:11:44.691Z,25.00
2022-09-21T21:15:06.097Z,21.30
2022-09-21T21:18:45.796Z,20.90
2022-09-21T21:22:18.915Z,22.30
2022-09-21T21:26:15.126Z,27.30
2022-09-21T21:29:35.898Z,30.60
2022-09-21T21:33:31.462Z,25.40
2022-09-21T21:37:13.196Z,23.60
2022-09-21T21:40:35.643Z,19.00
2022-09-21T21:44:11.613Z,28.20
2022-09-21T21:48:06.002Z,24.80
2022-09-21T21:51:45.525Z,24.30
2022-09-21T21:55:06.582Z,19.80
2022-09-21T21:59:02.095Z,19.80
2022-09-21T22:02:22.650Z,23.00
2022-09-21T22:06:19.098Z,23.20
2022-09-21T22:09:39.498Z,19.50
2022-09-21T22:13:18.113Z,24.10
2022-09-21T22:17:12.045Z,17.30
2022-09-21T22:20:32.436Z,21.40
2022-09-21T22:24:27.874Z,19.20
2022-09-21T22:27:48.214Z,18.20
2022-09-21T22:31:28.647Z,17.90
2022-09-21T22:35:02.247Z,22.00
2022-09-21T22:38:42.886Z,16.90
2022-09-21T22:42:34.388Z,17.40
2022-09-21T22:45:55.182Z,17.60
2022-09-21T22:49:32.046Z,16.00
2022-09-21T22:53:08.774Z,17.60
2022-09-21T22:56:45.619Z,16.20
2022-09-21T23:00:22.390Z,17.00
2022-09-21T23:04:18.128Z,11.50
2022-09-21T23:07:38.781Z,16.60
2022-09-21T23:11:21.846Z,14.00
2022-09-21T23:14:52.429Z,14.10
2022-09-21T23:18:29.330Z,15.30
2022-09-21T23:22:24.750Z,15.70
2022-09-21T23:25:45.111Z,15.60
2022-09-21T23:29:21.935Z,16.40
2022-09-21T23:32:58.783Z,11.40
2022-09-21T23:36:36.448Z,12.80
2022-09-21T23:40:31.549Z,11.60
2022-09-21T23:43:52.532Z,14.60
2022-09-21T23:47:28.782Z,13.20
2022-09-21T23:51:05.847Z,16.80
2022-09-21T23:55:01.282Z,12.90
2022-09-21T23:58:41.372Z,19.00
